Time;durP1;ratioP1;P1;durP2;ratioP2;P2;SDS_P1;SDS_P2;PMS_P1;PMS_P2;Temp;Humidity;BMP_temperature;BMP_pressure;BME280_temperature;BME280_humidity;BME280_pressure;Samples;Min_cycle;Max_cycle;Signal;HPM_P1;HPM_P2
2023/07/26 00:02:19;;;;;;;3.33;1.95;;;13.70;99.90;;;;;;5141238;27;20034;-78
2023/07/26 00:04:45;;;;;;;4.65;1.92;;;13.70;99.90;;;;;;5147530;27;20538;-78
2023/07/26 00:07:10;;;;;;;3.40;1.90;;;13.70;99.90;;;;;;5142450;27;20043;-78
2023/07/26 00:09:36;;;;;;;3.58;1.80;;;13.70;99.90;;;;;;5125508;27;20070;-78
2023/07/26 00:12:02;;;;;;;2.75;1.83;;;13.70;99.90;;;;;;5148022;27;20576;-78
2023/07/26 00:14:28;;;;;;;3.80;1.80;;;13.70;99.90;;;;;;5142399;27;20077;-78
2023/07/26 00:16:54;;;;;;;3.95;1.90;;;13.70;99.90;;;;;;5152013;27;20113;-78
2023/07/26 00:19:19;;;;;;;3.95;1.90;;;13.70;99.90;;;;;;5143195;27;20058;-78
2023/07/26 00:21:46;;;;;;;4.72;2.20;;;13.70;99.90;;;;;;5142880;27;20149;-78
2023/07/26 00:24:12;;;;;;;5.32;2.42;;;13.70;99.90;;;;;;5149621;27;20039;-78
2023/07/26 00:26:37;;;;;;;4.78;2.22;;;13.60;99.90;;;;;;5124938;27;20042;-78
2023/07/26 00:29:03;;;;;;;4.30;2.05;;;13.60;99.90;;;;;;5147798;27;20042;-78
2023/07/26 00:31:28;;;;;;;5.10;2.28;;;13.60;99.90;;;;;;5130993;27;20043;-78
2023/07/26 00:33:54;;;;;;;4.90;2.15;;;13.60;99.90;;;;;;5158998;27;20042;-78
2023/07/26 00:36:19;;;;;;;3.92;2.13;;;13.60;99.90;;;;;;5140891;27;20163;-78
2023/07/26 00:38:45;;;;;;;9.15;2.20;;;13.50;99.90;;;;;;5127049;27;20037;-78
2023/07/26 00:41:10;;;;;;;6.15;3.00;;;13.50;99.90;;;;;;5144887;27;20450;-78
2023/07/26 00:43:36;;;;;;;3.65;2.13;;;13.60;99.90;;;;;;5144037;27;20035;-79
2023/07/26 00:46:03;;;;;;;5.95;2.33;;;13.50;99.90;;;;;;5125343;27;20035;-79
2023/07/26 00:48:28;;;;;;;6.30;2.30;;;13.50;99.90;;;;;;5145181;27;20038;-79
2023/07/26 00:50:55;;;;;;;5.47;2.28;;;13.50;99.90;;;;;;5141603;27;20038;-78
2023/07/26 00:53:21;;;;;;;3.38;2.22;;;13.50;99.90;;;;;;5135358;27;20035;-78
2023/07/26 00:55:48;;;;;;;3.60;2.00;;;13.50;99.90;;;;;;5145648;27;20042;-78
2023/07/26 00:58:14;;;;;;;6.43;2.60;;;13.50;99.90;;;;;;5150083;27;20035;-78
2023/07/26 01:00:43;;;;;;;3.53;2.10;;;13.50;99.90;;;;;;5146508;27;20114;-78
2023/07/26 01:03:08;;;;;;;3.72;2.22;;;13.50;99.90;;;;;;5149070;27;20117;-78
2023/07/26 01:05:41;;;;;;;5.13;2.42;;;13.50;99.90;;;;;;5147358;27;20113;-78
2023/07/26 01:08:27;;;;;;;5.03;2.85;;;13.50;99.90;;;;;;5123595;27;20441;-78
2023/07/26 01:10:57;;;;;;;4.40;2.00;;;13.50;99.90;;;;;;5147024;27;20075;-78
2023/07/26 01:13:38;;;;;;;4.50;1.98;;;13.50;99.90;;;;;;5139418;27;20088;-78
2023/07/26 01:16:04;;;;;;;5.40;2.13;;;13.50;99.90;;;;;;5131475;27;20397;-78
2023/07/26 01:18:29;;;;;;;3.75;1.90;;;13.40;99.90;;;;;;5142909;27;20030;-77
2023/07/26 01:20:55;;;;;;;5.80;2.30;;;13.40;99.90;;;;;;5139418;27;20062;-78
2023/07/26 01:23:20;;;;;;;4.30;2.00;;;13.40;99.90;;;;;;5138978;27;20066;-78
2023/07/26 01:25:46;;;;;;;4.38;2.70;;;13.40;99.90;;;;;;5119990;27;20035;-77
2023/07/26 01:28:11;;;;;;;4.78;2.60;;;13.40;99.90;;;;;;5149746;27;20118;-77
2023/07/26 01:30:37;;;;;;;4.35;2.38;;;13.30;99.90;;;;;;5142782;27;20608;-78
2023/07/26 01:33:06;;;;;;;3.63;2.50;;;13.30;99.90;;;;;;5144406;27;20550;-78
2023/07/26 01:35:33;;;;;;;4.57;2.30;;;13.30;99.90;;;;;;5141709;27;20047;-78
2023/07/26 01:37:59;;;;;;;3.80;2.60;;;13.30;99.90;;;;;;5131427;27;20069;-78
2023/07/26 01:40:26;;;;;;;3.47;2.20;;;13.20;99.90;;;;;;5141431;27;20463;-78
2023/07/26 01:42:52;;;;;;;3.47;2.30;;;13.20;99.90;;;;;;5141696;27;20066;-78
2023/07/26 01:45:18;;;;;;;3.88;2.20;;;13.20;99.90;;;;;;5145515;27;20046;-77
2023/07/26 01:47:43;;;;;;;3.78;2.20;;;13.20;99.90;;;;;;5149385;27;20412;-77
2023/07/26 01:50:10;;;;;;;4.85;2.35;;;13.10;99.90;;;;;;5139903;27;20030;-78
2023/07/26 01:52:35;;;;;;;4.22;2.22;;;13.10;99.90;;;;;;5131252;27;20034;-77
2023/07/26 01:55:01;;;;;;;4.85;2.40;;;13.00;99.90;;;;;;5143823;27;20039;-78
2023/07/26 01:57:27;;;;;;;5.38;2.45;;;12.90;99.90;;;;;;5140177;27;20402;-78
2023/07/26 01:59:53;;;;;;;4.07;2.35;;;12.90;99.90;;;;;;5146319;27;20051;-78
2023/07/26 02:02:18;;;;;;;3.85;2.20;;;12.90;99.90;;;;;;5142966;27;20549;-78
2023/07/26 02:04:45;;;;;;;3.78;2.03;;;12.90;99.90;;;;;;5146772;27;20114;-78
2023/07/26 02:07:11;;;;;;;3.80;2.45;;;12.80;99.90;;;;;;5136147;27;20408;-78
2023/07/26 02:09:37;;;;;;;3.83;2.58;;;12.70;99.90;;;;;;5144554;27;20031;-78
2023/07/26 02:12:02;;;;;;;2.90;2.33;;;12.70;99.90;;;;;;5147458;27;20150;-78
2023/07/26 02:14:28;;;;;;;4.30;2.53;;;12.80;99.90;;;;;;5143019;27;20039;-77
2023/07/26 02:16:53;;;;;;;3.35;2.10;;;12.70;99.90;;;;;;5149368;27;20030;-78
2023/07/26 02:19:19;;;;;;;5.85;3.00;;;12.70;99.90;;;;;;5144812;27;20035;-77
2023/07/26 02:21:45;;;;;;;3.83;2.65;;;12.70;99.90;;;;;;5145969;27;20106;-78
2023/07/26 02:24:10;;;;;;;4.70;2.50;;;12.80;99.90;;;;;;5133334;27;20419;-78
2023/07/26 02:26:36;;;;;;;4.53;2.78;;;12.70;99.90;;;;;;5133533;27;20030;-78
2023/07/26 02:29:01;;;;;;;4.70;2.80;;;12.70;99.90;;;;;;5144351;27;20035;-79
2023/07/26 02:31:27;;;;;;;4.35;2.90;;;12.70;99.90;;;;;;5127864;27;20191;-79
2023/07/26 02:33:52;;;;;;;5.38;2.63;;;12.70;99.90;;;;;;5143991;27;20095;-78
2023/07/26 02:36:18;;;;;;;4.78;2.60;;;12.60;99.90;;;;;;5140024;27;20073;-78
2023/07/26 02:38:43;;;;;;;3.83;2.10;;;12.60;99.90;;;;;;5116253;27;20399;-78
2023/07/26 02:41:09;;;;;;;4.75;2.63;;;12.60;99.90;;;;;;5144917;27;20034;-78
2023/07/26 02:43:34;;;;;;;4.30;2.70;;;12.60;99.90;;;;;;5146719;27;20046;-78
2023/07/26 02:46:00;;;;;;;6.72;2.90;;;12.60;99.90;;;;;;5140998;27;20099;-78
2023/07/26 02:48:25;;;;;;;4.53;2.95;;;12.60;99.90;;;;;;5145091;27;20114;-78
2023/07/26 02:50:51;;;;;;;6.22;3.03;;;12.50;99.90;;;;;;5148035;27;20504;-78
2023/07/26 02:53:16;;;;;;;5.60;2.97;;;12.40;99.90;;;;;;5150145;27;20064;-78
2023/07/26 02:55:42;;;;;;;6.35;3.20;;;12.40;99.90;;;;;;5144429;27;20039;-79
2023/07/26 02:58:08;;;;;;;4.10;2.58;;;12.30;99.90;;;;;;5149260;27;20060;-79
2023/07/26 03:00:34;;;;;;;6.07;2.83;;;12.30;99.90;;;;;;5142587;27;20035;-78
2023/07/26 03:02:59;;;;;;;6.75;2.97;;;12.20;99.90;;;;;;5125918;27;20035;-78
2023/07/26 03:05:25;;;;;;;6.47;2.75;;;12.30;99.90;;;;;;5140006;27;20035;-78
2023/07/26 03:07:51;;;;;;;4.50;2.90;;;12.20;99.90;;;;;;5147041;27;20513;-78
2023/07/26 03:10:17;;;;;;;5.18;2.90;;;12.20;99.90;;;;;;5146718;27;20225;-78
2023/07/26 03:12:43;;;;;;;6.32;2.80;;;12.20;99.90;;;;;;5123871;27;20128;-78
2023/07/26 03:15:09;;;;;;;10.02;3.75;;;12.20;99.90;;;;;;5138208;27;20427;-78
2023/07/26 03:17:34;;;;;;;5.10;3.13;;;12.20;99.90;;;;;;5144099;27;20026;-78
2023/07/26 03:20:00;;;;;;;5.25;3.38;;;12.20;99.90;;;;;;5145790;27;20062;-78
2023/07/26 03:22:25;;;;;;;6.18;3.30;;;12.20;99.90;;;;;;5148387;27;20029;-78
2023/07/26 03:24:51;;;;;;;5.93;3.22;;;12.10;99.90;;;;;;5144337;27;20073;-78
2023/07/26 03:27:16;;;;;;;4.60;3.00;;;12.10;99.90;;;;;;5145193;27;20154;-78
2023/07/26 03:29:42;;;;;;;4.35;3.10;;;12.10;99.90;;;;;;5141799;27;20038;-78
2023/07/26 03:32:08;;;;;;;5.15;3.00;;;12.10;99.90;;;;;;5120599;27;20061;-78
2023/07/26 03:34:33;;;;;;;4.15;2.95;;;12.10;99.90;;;;;;5142369;27;20031;-78
2023/07/26 03:37:00;;;;;;;6.72;3.10;;;12.10;99.90;;;;;;5121775;27;20078;-78
2023/07/26 03:39:25;;;;;;;5.68;3.08;;;12.20;99.90;;;;;;5144141;27;20515;-78
2023/07/26 03:41:51;;;;;;;4.65;3.42;;;12.10;99.90;;;;;;5120591;27;20062;-78
2023/07/26 03:44:16;;;;;;;5.28;3.08;;;12.10;99.90;;;;;;5138723;27;20114;-78
2023/07/26 03:46:42;;;;;;;5.68;3.83;;;12.10;99.90;;;;;;5147422;27;20053;-78
2023/07/26 03:49:07;;;;;;;5.78;3.28;;;12.10;99.90;;;;;;5149591;27;20048;-79
2023/07/26 03:51:33;;;;;;;7.10;3.25;;;12.20;99.90;;;;;;5144043;27;20397;-78
2023/07/26 03:53:58;;;;;;;4.80;3.10;;;12.20;99.90;;;;;;5144129;27;20122;-78
2023/07/26 03:56:24;;;;;;;7.10;3.30;;;12.20;99.90;;;;;;5141936;27;20043;-78
2023/07/26 03:58:49;;;;;;;5.22;3.30;;;12.20;99.90;;;;;;5141560;27;20084;-78
2023/07/26 04:01:15;;;;;;;6.88;3.53;;;12.20;99.90;;;;;;5125828;27;20033;-78
2023/07/26 04:03:40;;;;;;;6.03;3.92;;;12.30;99.90;;;;;;5146273;27;20050;-78
2023/07/26 04:06:12;;;;;;;7.80;3.67;;;12.30;99.90;;;;;;5151888;27;20350;-78
2023/07/26 04:08:38;;;;;;;3.80;3.28;;;12.40;99.90;;;;;;5142502;27;20068;-78
2023/07/26 04:11:03;;;;;;;6.55;3.30;;;12.40;99.90;;;;;;5151875;27;20035;-78
2023/07/26 04:13:29;;;;;;;5.78;3.10;;;12.40;99.90;;;;;;5142588;27;20413;-78
2023/07/26 04:15:54;;;;;;;7.93;3.88;;;12.40;99.90;;;;;;5140747;27;20027;-78
2023/07/26 04:18:20;;;;;;;6.32;3.88;;;12.50;99.90;;;;;;5142541;27;20060;-78
2023/07/26 04:20:45;;;;;;;5.15;3.53;;;12.50;99.90;;;;;;5150844;27;20029;-78
2023/07/26 04:23:11;;;;;;;4.80;2.88;;;12.50;99.90;;;;;;5148921;27;20038;-78
2023/07/26 04:25:36;;;;;;;6.20;3.40;;;12.50;99.90;;;;;;5145978;27;20031;-78
2023/07/26 04:28:02;;;;;;;5.13;3.10;;;12.50;99.90;;;;;;5144397;27;20035;-78
2023/07/26 04:30:28;;;;;;;6.35;3.20;;;12.50;99.90;;;;;;5149561;27;20027;-78
2023/07/26 04:32:53;;;;;;;6.95;3.75;;;12.50;99.90;;;;;;5151165;27;20159;-78
2023/07/26 04:35:19;;;;;;;4.97;3.20;;;12.50;99.90;;;;;;5143222;27;20041;-78
2023/07/26 04:37:44;;;;;;;4.82;3.22;;;12.50;99.90;;;;;;5136263;27;20565;-78
2023/07/26 04:40:10;;;;;;;4.78;3.42;;;12.60;99.90;;;;;;5143026;27;20497;-78
2023/07/26 04:42:36;;;;;;;5.63;3.40;;;12.60;99.90;;;;;;5146063;27;20032;-78
2023/07/26 04:45:01;;;;;;;5.07;3.15;;;12.70;99.90;;;;;;5143921;27;20074;-78
2023/07/26 04:47:27;;;;;;;5.85;3.05;;;12.80;99.90;;;;;;5143045;27;20034;-78
2023/07/26 04:49:53;;;;;;;7.10;3.47;;;12.80;99.90;;;;;;5145771;27;20451;-78
2023/07/26 04:52:18;;;;;;;5.50;3.55;;;12.90;99.90;;;;;;5131958;27;20066;-78
2023/07/26 04:54:44;;;;;;;4.82;3.03;;;12.90;99.90;;;;;;5146562;27;20118;-78
2023/07/26 04:57:09;;;;;;;4.15;3.20;;;12.90;99.90;;;;;;5136571;27;20083;-78
2023/07/26 04:59:35;;;;;;;4.43;3.22;;;13.00;99.90;;;;;;5141182;27;20035;-78
2023/07/26 05:02:00;;;;;;;5.93;3.20;;;13.10;99.90;;;;;;5135134;27;20027;-78
2023/07/26 05:04:26;;;;;;;5.30;3.25;;;13.10;99.90;;;;;;5142771;27;20443;-78
2023/07/26 05:06:51;;;;;;;6.13;3.50;;;13.30;99.90;;;;;;5123118;27;20460;-78
2023/07/26 05:09:17;;;;;;;5.97;2.90;;;13.40;99.90;;;;;;5151760;27;20035;-78
2023/07/26 05:11:42;;;;;;;5.20;2.67;;;13.60;99.90;;;;;;5151122;27;20394;-78
2023/07/26 05:14:08;;;;;;;5.30;2.70;;;13.70;99.90;;;;;;5146700;27;20524;-78
2023/07/26 05:16:33;;;;;;;5.00;3.10;;;13.80;99.90;;;;;;5138569;27;20034;-78
2023/07/26 05:18:59;;;;;;;5.97;2.92;;;13.90;99.90;;;;;;5142763;27;20035;-78
2023/07/26 05:21:25;;;;;;;4.07;2.53;;;14.00;99.90;;;;;;5146643;27;20034;-78
2023/07/26 05:23:51;;;;;;;23.60;3.00;;;14.00;99.90;;;;;;5140890;27;20038;-78
2023/07/26 05:26:16;;;;;;;4.25;2.38;;;14.00;99.90;;;;;;5147072;27;20035;-78
2023/07/26 05:28:42;;;;;;;4.60;2.33;;;14.10;99.90;;;;;;5147060;27;20138;-78
2023/07/26 05:31:07;;;;;;;3.53;2.28;;;14.10;99.90;;;;;;5148228;27;20527;-78
2023/07/26 05:33:33;;;;;;;3.53;2.08;;;14.10;99.90;;;;;;5146709;27;20121;-78
2023/07/26 05:35:58;;;;;;;4.68;2.10;;;14.00;99.90;;;;;;5142489;27;20043;-78
2023/07/26 05:38:24;;;;;;;4.05;1.90;;;14.00;99.90;;;;;;5143747;27;20050;-79
2023/07/26 05:40:49;;;;;;;4.55;1.90;;;13.90;99.90;;;;;;5127182;27;20027;-80
2023/07/26 05:43:17;;;;;;;3.13;1.65;;;13.80;99.90;;;;;;5142276;27;20040;-79
2023/07/26 05:45:44;;;;;;;3.95;1.73;;;13.70;99.90;;;;;;5136607;27;20075;-80
2023/07/26 05:48:10;;;;;;;3.08;1.85;;;13.70;99.90;;;;;;5137553;27;20042;-79
2023/07/26 05:50:35;;;;;;;4.63;1.90;;;13.60;99.90;;;;;;5142737;27;20258;-79
2023/07/26 05:53:01;;;;;;;5.72;1.77;;;13.60;99.90;;;;;;5129556;27;20039;-78
2023/07/26 05:55:26;;;;;;;2.63;1.55;;;13.60;99.90;;;;;;5140615;27;20047;-79
2023/07/26 05:57:52;;;;;;;4.72;1.90;;;13.60;99.90;;;;;;5138827;27;20073;-79
2023/07/26 06:00:19;;;;;;;6.13;2.17;;;13.60;99.90;;;;;;5142735;27;20035;-79
2023/07/26 06:02:44;;;;;;;2.80;1.73;;;13.60;99.90;;;;;;5124227;27;20432;-79
2023/07/26 06:05:10;;;;;;;3.33;1.77;;;13.50;99.90;;;;;;5132826;27;20031;-80
2023/07/26 06:07:38;;;;;;;3.70;1.88;;;13.60;99.90;;;;;;5135079;27;20049;-80
2023/07/26 06:10:04;;;;;;;5.10;1.80;;;13.60;99.90;;;;;;5117664;27;20035;-80
2023/07/26 06:12:30;;;;;;;6.50;2.03;;;13.60;99.90;;;;;;5143833;27;20026;-79
2023/07/26 06:14:56;;;;;;;4.13;2.10;;;13.60;99.90;;;;;;5140148;27;20079;-79
2023/07/26 06:17:21;;;;;;;3.03;2.15;;;13.60;99.90;;;;;;5146772;27;20026;-79
2023/07/26 06:19:48;;;;;;;5.15;2.08;;;13.60;99.90;;;;;;5138215;27;20191;-79
2023/07/26 06:22:13;;;;;;;3.88;2.10;;;13.70;99.90;;;;;;5131331;27;20121;-80
2023/07/26 06:24:39;;;;;;;3.85;1.98;;;13.60;99.90;;;;;;5143031;27;20113;-80
2023/07/26 06:27:04;;;;;;;4.28;2.15;;;13.60;99.90;;;;;;5128560;27;20039;-80
2023/07/26 06:29:30;;;;;;;4.65;2.13;;;13.60;99.90;;;;;;5137720;27;20035;-79
2023/07/26 06:31:55;;;;;;;4.78;2.05;;;13.70;99.90;;;;;;5125571;27;20047;-81
2023/07/26 06:34:21;;;;;;;3.78;2.10;;;13.70;99.90;;;;;;5124023;27;20035;-80
2023/07/26 06:36:47;;;;;;;7.03;2.22;;;13.80;99.90;;;;;;5143017;27;20030;-80
2023/07/26 06:39:12;;;;;;;5.47;2.30;;;13.90;99.90;;;;;;5125926;27;20035;-80
2023/07/26 06:41:38;;;;;;;5.20;2.22;;;14.10;99.90;;;;;;5146246;27;20035;-80
2023/07/26 06:44:04;;;;;;;7.97;2.20;;;14.20;99.90;;;;;;5124202;27;20056;-79
2023/07/26 06:46:29;;;;;;;3.40;2.10;;;14.50;99.90;;;;;;5136456;27;20100;-80
2023/07/26 06:48:55;;;;;;;3.70;2.20;;;14.60;99.90;;;;;;5147360;27;20039;-80
2023/07/26 06:51:20;;;;;;;4.90;2.42;;;14.70;99.90;;;;;;5151511;27;20045;-79
2023/07/26 06:53:46;;;;;;;3.75;2.22;;;14.70;99.90;;;;;;5137506;27;20083;-79
2023/07/26 06:56:12;;;;;;;3.70;2.15;;;14.80;99.90;;;;;;5141510;27;20073;-81
2023/07/26 06:58:37;;;;;;;5.28;2.00;;;14.80;99.90;;;;;;5142547;27;20105;-80
2023/07/26 07:01:03;;;;;;;4.18;2.35;;;14.80;99.90;;;;;;5142757;27;20098;-80
2023/07/26 07:03:28;;;;;;;4.50;2.00;;;14.70;99.90;;;;;;5133680;27;20039;-80
2023/07/26 07:05:54;;;;;;;4.38;2.00;;;14.60;99.90;;;;;;5146874;27;20490;-80
2023/07/26 07:08:20;;;;;;;4.90;1.80;;;14.50;99.90;;;;;;5149356;27;20111;-79
2023/07/26 07:10:46;;;;;;;4.32;1.80;;;14.40;99.90;;;;;;5143262;27;20074;-79
2023/07/26 07:13:11;;;;;;;4.15;1.85;;;14.40;99.90;;;;;;5150498;27;20035;-79
2023/07/26 07:15:37;;;;;;;3.03;1.98;;;14.40;99.90;;;;;;5147830;27;20055;-80
2023/07/26 07:18:02;;;;;;;4.18;1.90;;;14.40;99.90;;;;;;5141472;27;20039;-79
2023/07/26 07:20:28;;;;;;;5.63;2.00;;;14.40;99.90;;;;;;5134828;27;20035;-80
2023/07/26 07:22:54;;;;;;;4.22;2.30;;;14.40;99.90;;;;;;5143713;27;20115;-79
2023/07/26 07:25:19;;;;;;;4.88;2.20;;;14.50;99.90;;;;;;5149322;27;20035;-79
2023/07/26 07:27:45;;;;;;;4.40;2.22;;;14.50;99.90;;;;;;5147765;27;20035;-79
2023/07/26 07:30:11;;;;;;;4.20;2.10;;;14.60;99.90;;;;;;5144008;27;20115;-78
2023/07/26 07:32:37;;;;;;;3.05;2.13;;;14.80;99.90;;;;;;5147452;27;20035;-78
2023/07/26 07:35:07;;;;;;;3.63;2.10;;;15.10;99.90;;;;;;5142450;27;20431;-79
2023/07/26 07:37:32;;;;;;;2.90;1.80;;;15.30;99.90;;;;;;5147804;27;20502;-78
2023/07/26 07:39:58;;;;;;;2.83;1.73;;;15.50;99.90;;;;;;5154237;27;20122;-78
2023/07/26 07:42:23;;;;;;;3.58;1.80;;;15.50;99.90;;;;;;5143140;27;20116;-78
2023/07/26 07:44:49;;;;;;;3.35;1.63;;;15.50;99.90;;;;;;5146472;27;20035;-78
2023/07/26 07:47:15;;;;;;;2.03;1.58;;;15.50;99.90;;;;;;5120850;27;20585;-78
2023/07/26 07:49:41;;;;;;;2.38;1.80;;;15.60;99.90;;;;;;5139475;27;20401;-79
2023/07/26 07:52:07;;;;;;;2.92;1.65;;;15.70;99.90;;;;;;5149410;27;20039;-79
2023/07/26 07:54:32;;;;;;;3.75;2.00;;;15.80;99.90;;;;;;5145793;27;20057;-79
2023/07/26 07:56:58;;;;;;;2.45;1.88;;;16.00;99.90;;;;;;5135621;27;20030;-78
2023/07/26 07:59:23;;;;;;;3.25;2.30;;;16.00;99.90;;;;;;5146562;27;20045;-78
2023/07/26 08:01:49;;;;;;;2.83;2.17;;;16.10;99.90;;;;;;5136473;27;20053;-79
2023/07/26 08:04:14;;;;;;;4.35;2.30;;;16.20;99.90;;;;;;5143323;27;20051;-78
2023/07/26 08:06:40;;;;;;;3.20;2.47;;;16.30;99.90;;;;;;5127268;27;20035;-79
2023/07/26 08:09:06;;;;;;;3.88;2.20;;;16.40;99.90;;;;;;5133451;27;20046;-78
2023/07/26 08:11:32;;;;;;;3.67;1.73;;;16.50;99.90;;;;;;5143187;27;20083;-78
2023/07/26 08:13:58;;;;;;;2.28;1.85;;;16.60;99.90;;;;;;5149752;27;20079;-78
2023/07/26 08:16:23;;;;;;;4.32;1.90;;;16.80;99.90;;;;;;5146352;27;20042;-77
2023/07/26 08:18:49;;;;;;;2.83;1.85;;;17.00;99.90;;;;;;5144588;27;20451;-78
2023/07/26 08:21:14;;;;;;;3.15;1.60;;;17.10;99.90;;;;;;5149289;27;20034;-77
2023/07/26 08:23:40;;;;;;;2.95;1.77;;;17.00;99.90;;;;;;5147241;27;20043;-77
2023/07/26 08:26:07;;;;;;;1.85;1.33;;;17.20;99.90;;;;;;5135764;27;20425;-77
2023/07/26 08:28:33;;;;;;;2.22;1.20;;;17.20;99.90;;;;;;5143515;27;20050;-78
2023/07/26 08:30:59;;;;;;;1.70;1.35;;;17.20;99.90;;;;;;5141724;27;20056;-77
2023/07/26 08:33:24;;;;;;;2.15;1.38;;;17.00;99.90;;;;;;5121455;27;20087;-77
2023/07/26 08:35:50;;;;;;;2.45;1.52;;;17.20;99.90;;;;;;5130474;27;20027;-78
2023/07/26 08:38:17;;;;;;;1.67;1.42;;;16.80;99.90;;;;;;5132849;27;20421;-77
2023/07/26 08:40:48;;;;;;;2.67;1.70;;;16.70;99.90;;;;;;5124249;27;20551;-78
2023/07/26 08:43:21;;;;;;;3.65;1.80;;;16.70;99.90;;;;;;5148472;27;20030;-77
2023/07/26 08:45:47;;;;;;;2.80;1.80;;;16.80;99.90;;;;;;5144456;27;20031;-78
2023/07/26 08:48:13;;;;;;;3.83;2.20;;;16.90;99.90;;;;;;5143762;27;20038;-77
2023/07/26 08:50:39;;;;;;;4.78;2.60;;;17.00;99.90;;;;;;5148868;27;20026;-77
2023/07/26 08:53:06;;;;;;;4.13;2.63;;;17.00;99.90;;;;;;5147096;27;20028;-78
2023/07/26 08:55:32;;;;;;;4.13;2.65;;;17.00;99.90;;;;;;5147286;27;20035;-78
2023/07/26 08:58:02;;;;;;;3.63;2.60;;;17.10;99.90;;;;;;5146448;27;20109;-77
2023/07/26 09:00:28;;;;;;;4.80;2.70;;;17.30;99.90;;;;;;5148666;27;20088;-77
2023/07/26 09:02:58;;;;;;;3.70;2.60;;;17.40;99.90;;;;;;5149585;27;20549;-77
2023/07/26 09:05:24;;;;;;;4.25;2.70;;;17.20;99.90;;;;;;5144592;27;20562;-77
2023/07/26 09:07:52;;;;;;;3.78;2.72;;;16.90;99.90;;;;;;5149262;27;20034;-77
2023/07/26 09:10:29;;;;;;;4.90;2.80;;;17.00;99.90;;;;;;5129689;27;20443;-78
2023/07/26 09:13:12;;;;;;;3.75;2.55;;;17.30;99.90;;;;;;5152044;27;20518;-78
2023/07/26 09:15:39;;;;;;;3.45;2.47;;;17.50;99.90;;;;;;5149185;27;20049;-79
2023/07/26 09:18:05;;;;;;;4.00;2.30;;;17.70;99.90;;;;;;5147844;27;20030;-77
2023/07/26 09:20:32;;;;;;;5.40;2.53;;;17.90;99.90;;;;;;5145122;27;20039;-78
2023/07/26 09:23:07;;;;;;;3.53;2.58;;;18.00;99.90;;;;;;5143947;27;20041;-78
2023/07/26 09:25:37;;;;;;;3.55;2.60;;;18.10;99.90;;;;;;5146527;27;20038;-78
2023/07/26 09:28:04;;;;;;;4.40;2.70;;;18.20;99.90;;;;;;5145170;27;20062;-78
2023/07/26 09:30:35;;;;;;;3.67;2.60;;;18.10;99.90;;;;;;5153059;27;20066;-78
2023/07/26 09:33:02;;;;;;;2.97;2.25;;;18.30;99.90;;;;;;5146490;27;20045;-79
2023/07/26 09:35:30;;;;;;;4.50;2.58;;;18.50;99.90;;;;;;5144858;27;20034;-78
2023/07/26 09:37:56;;;;;;;4.18;2.88;;;18.40;99.90;;;;;;5146408;27;20031;-78
2023/07/26 09:40:32;;;;;;;4.88;2.92;;;18.40;99.90;;;;;;5147068;27;20518;-78
2023/07/26 09:42:57;;;;;;;5.00;2.58;;;18.50;99.90;;;;;;5152373;27;20482;-78
2023/07/26 09:45:24;;;;;;;4.70;2.83;;;18.50;99.90;;;;;;5131240;27;20118;-78
2023/07/26 09:47:53;;;;;;;3.88;2.53;;;18.60;99.90;;;;;;5151394;27;20095;-78
2023/07/26 09:50:28;;;;;;;4.18;1.73;;;18.80;99.90;;;;;;5150632;27;20079;-77
2023/07/26 09:52:55;;;;;;;4.97;1.83;;;18.70;99.90;;;;;;5127137;27;20039;-79
2023/07/26 09:55:28;;;;;;;2.45;1.77;;;18.30;99.90;;;;;;5146569;27;20450;-78
2023/07/26 09:57:55;;;;;;;4.05;2.00;;;17.90;99.90;;;;;;5151204;27;20027;-79
2023/07/26 10:00:23;;;;;;;2.92;1.88;;;17.60;99.90;;;;;;5145559;27;20034;-78
2023/07/26 10:02:56;;;;;;;3.47;2.17;;;17.30;99.90;;;;;;5146311;27;20137;-78
2023/07/26 10:05:24;;;;;;;3.03;2.00;;;17.20;99.90;;;;;;5136733;27;20034;-78
2023/07/26 10:07:50;;;;;;;3.28;2.13;;;17.20;99.90;;;;;;5144012;27;20049;-77
2023/07/26 10:10:17;;;;;;;4.82;2.65;;;17.30;99.90;;;;;;5151552;27;20569;-77
2023/07/26 10:12:45;;;;;;;3.75;2.38;;;17.50;99.90;;;;;;5148661;27;20506;-77
2023/07/26 10:15:12;;;;;;;7.18;2.10;;;17.70;99.90;;;;;;5149996;27;20045;-77
2023/07/26 10:17:40;;;;;;;3.30;1.83;;;17.90;99.90;;;;;;5146394;27;20049;-77
2023/07/26 10:20:08;;;;;;;4.40;2.10;;;18.20;99.90;;;;;;5143401;27;20118;-77
2023/07/26 10:22:35;;;;;;;3.67;2.03;;;18.50;99.90;;;;;;5147172;27;20062;-77
2023/07/26 10:25:01;;;;;;;4.55;2.25;;;18.70;99.90;;;;;;5144913;27;20038;-77
2023/07/26 10:27:27;;;;;;;2.80;1.85;;;18.80;99.90;;;;;;5149940;27;20035;-77
2023/07/26 10:29:52;;;;;;;4.07;2.22;;;19.00;99.90;;;;;;5147058;27;20443;-76
2023/07/26 10:32:18;;;;;;;3.15;2.03;;;18.90;99.90;;;;;;5145860;27;20469;-77
2023/07/26 10:34:43;;;;;;;2.22;1.67;;;18.90;99.90;;;;;;5138810;27;20035;-77
2023/07/26 10:37:18;;;;;;;2.08;1.65;;;18.70;99.90;;;;;;5141439;27;20046;-78
2023/07/26 10:39:44;;;;;;;2.75;1.80;;;18.90;99.90;;;;;;5145896;27;20031;-77
2023/07/26 10:42:26;;;;;;;2.78;1.30;;;18.90;99.90;;;;;;5148316;27;20090;-77
2023/07/26 10:44:57;;;;;;;2.10;1.40;;;19.00;99.90;;;;;;5147720;27;20038;-77
2023/07/26 10:47:23;;;;;;;2.63;1.55;;;19.20;99.90;;;;;;5137613;27;20599;-77
2023/07/26 10:49:49;;;;;;;4.55;1.70;;;19.40;99.90;;;;;;5117494;27;20031;-78
2023/07/26 10:52:15;;;;;;;3.15;1.73;;;19.70;99.90;;;;;;5131435;27;20035;-76
2023/07/26 10:54:43;;;;;;;3.55;1.80;;;19.90;99.90;;;;;;5129101;27;20083;-77
2023/07/26 10:57:27;;;;;;;3.97;1.70;;;20.10;99.90;;;;;;5147609;27;20038;-77
2023/07/26 11:00:10;;;;;;;3.85;1.70;;;20.20;99.90;;;;;;5142598;27;20053;-78
2023/07/26 11:02:37;;;;;;;4.25;2.00;;;20.30;99.90;;;;;;5121303;27;20037;-77
2023/07/26 11:05:05;;;;;;;3.83;1.60;;;20.10;99.90;;;;;;5139498;27;20042;-77
2023/07/26 11:07:51;;;;;;;3.72;1.42;;;19.80;99.90;;;;;;5132116;27;20400;-77
2023/07/26 11:10:29;;;;;;;1.52;0.95;;;18.90;99.90;;;;;;5142509;27;20485;-76
2023/07/26 11:13:18;;;;;;;1.67;0.80;;;17.90;99.90;;;;;;5135370;27;20402;-78
2023/07/26 11:15:45;;;;;;;1.48;0.73;;;16.60;99.90;;;;;;5145795;27;20046;-78
2023/07/26 11:18:11;;;;;;;3.10;0.95;;;16.10;99.90;;;;;;5154355;27;20042;-77
2023/07/26 11:20:50;;;;;;;1.92;1.10;;;15.70;99.90;;;;;;5140802;27;20043;-78
2023/07/26 11:23:27;;;;;;;2.15;0.98;;;15.60;99.90;;;;;;5137230;27;20026;-77
2023/07/26 11:25:58;;;;;;;2.80;1.10;;;15.40;99.90;;;;;;5134844;27;20043;-77
2023/07/26 11:28:28;;;;;;;3.15;1.13;;;15.20;99.90;;;;;;5124550;27;20063;-78
2023/07/26 11:30:56;;;;;;;2.33;0.98;;;15.00;99.90;;;;;;5135609;27;20035;-77
2023/07/26 11:33:40;;;;;;;3.97;1.25;;;14.90;99.90;;;;;;5135154;27;20100;-78
2023/07/26 11:36:07;;;;;;;2.85;1.15;;;14.90;99.90;;;;;;5131469;27;20031;-79
2023/07/26 11:38:33;;;;;;;2.05;0.90;;;14.90;99.90;;;;;;5119930;27;20374;-78
2023/07/26 11:40:59;;;;;;;3.38;1.35;;;15.10;99.90;;;;;;5131675;27;20148;-78
2023/07/26 11:43:28;;;;;;;2.53;1.10;;;15.40;99.90;;;;;;5133866;27;20111;-78
2023/07/26 11:45:55;;;;;;;3.65;1.60;;;15.50;99.90;;;;;;5126662;27;20027;-79
2023/07/26 11:48:21;;;;;;;3.65;1.38;;;15.60;99.90;;;;;;5123956;27;20041;-78
2023/07/26 11:50:47;;;;;;;2.28;1.15;;;15.70;99.90;;;;;;5138118;27;20031;-78
2023/07/26 11:53:14;;;;;;;3.08;1.55;;;15.80;99.90;;;;;;5136382;27;20039;-78
2023/07/26 11:55:42;;;;;;;3.10;1.27;;;15.80;99.90;;;;;;5132864;27;20037;-78
2023/07/26 11:58:11;;;;;;;5.00;1.88;;;15.90;99.90;;;;;;5141980;27;20061;-79
2023/07/26 12:00:38;;;;;;;2.90;1.50;;;15.90;99.90;;;;;;5144643;27;20497;-80
2023/07/26 12:03:05;;;;;;;3.17;1.40;;;16.00;99.90;;;;;;5136025;27;20039;-79
2023/07/26 12:05:32;;;;;;;2.95;1.50;;;16.10;99.90;;;;;;5139767;27;20030;-79
2023/07/26 12:08:04;;;;;;;2.58;1.50;;;16.20;99.90;;;;;;5139918;27;20035;-79
2023/07/26 12:10:34;;;;;;;3.55;1.40;;;16.30;99.90;;;;;;5124021;27;20058;-78
2023/07/26 12:13:07;;;;;;;3.17;1.60;;;16.50;99.90;;;;;;5139203;27;20027;-78
2023/07/26 12:15:51;;;;;;;2.30;1.50;;;17.00;99.90;;;;;;5124100;27;20046;-78
2023/07/26 12:18:18;;;;;;;2.30;1.63;;;17.50;99.90;;;;;;5140663;27;20052;-79
2023/07/26 12:20:56;;;;;;;2.67;1.85;;;18.00;99.90;;;;;;5134970;27;20448;-78
2023/07/26 12:23:22;;;;;;;4.07;1.90;;;18.20;99.90;;;;;;5123016;27;20031;-78
2023/07/26 12:25:56;;;;;;;2.80;1.65;;;18.50;99.90;;;;;;5135746;27;20152;-79
2023/07/26 12:28:21;;;;;;;;;;;19.00;99.90;;;;;;5138567;27;20038;-77
2023/07/26 12:30:57;;;;;;;2.45;1.60;;;19.20;99.90;;;;;;5135365;27;20015;-80
2023/07/26 12:33:24;;;;;;;4.07;1.58;;;19.60;99.90;;;;;;5135355;27;20089;-81
2023/07/26 12:35:55;;;;;;;3.80;1.73;;;19.90;99.90;;;;;;5135477;27;20494;-79
2023/07/26 12:38:22;;;;;;;2.72;1.67;;;20.30;99.90;;;;;;5139550;27;20031;-79
2023/07/26 12:40:48;;;;;;;3.10;1.50;;;20.60;99.90;;;;;;5137767;27;20038;-79
2023/07/26 12:43:28;;;;;;;2.88;1.83;;;20.90;99.90;;;;;;5122913;27;20074;-79
2023/07/26 12:45:55;;;;;;;2.50;1.38;;;20.90;99.90;;;;;;5137022;27;20126;-79
2023/07/26 12:48:22;;;;;;;3.63;1.63;;;20.90;99.90;;;;;;5137479;27;20026;-79